sensor_id;sensor_type;location;lat;lon;timestamp;P1;durP1;ratioP1;P2;durP2;ratioP2
35312;SDS011;21425;50.454;30.466;2023-08-31T00:01:49;12.55;;;6.53;;
35312;SDS011;21425;50.454;30.466;2023-08-31T00:04:17;15.27;;;7.15;;
35312;SDS011;21425;50.454;30.466;2023-08-31T00:06:43;11.35;;;6.70;;
35312;SDS011;21425;50.454;30.466;2023-08-31T00:09:11;14.20;;;6.97;;
35312;SDS011;21425;50.454;30.466;2023-08-31T00:11:38;18.10;;;6.93;;
35312;SDS011;21425;50.454;30.466;2023-08-31T00:14:04;19.30;;;6.63;;
35312;SDS011;21425;50.454;30.466;2023-08-31T00:16:29;13.05;;;7.07;;
35312;SDS011;21425;50.454;30.466;2023-08-31T00:18:55;12.23;;;6.90;;
35312;SDS011;21425;50.454;30.466;2023-08-31T00:21:22;14.52;;;6.97;;
35312;SDS011;21425;50.454;30.466;2023-08-31T00:23:49;14.63;;;7.05;;
35312;SDS011;21425;50.454;30.466;2023-08-31T00:26:15;15.38;;;6.63;;
35312;SDS011;21425;50.454;30.466;2023-08-31T00:28:40;11.82;;;5.97;;
35312;SDS011;21425;50.454;30.466;2023-08-31T00:31:10;13.55;;;6.57;;
35312;SDS011;21425;50.454;30.466;2023-08-31T00:33:44;15.10;;;6.32;;
35312;SDS011;21425;50.454;30.466;2023-08-31T00:36:16;12.85;;;6.50;;
35312;SDS011;21425;50.454;30.466;2023-08-31T00:38:43;10.93;;;5.93;;
35312;SDS011;21425;50.454;30.466;2023-08-31T00:41:09;19.23;;;5.97;;
35312;SDS011;21425;50.454;30.466;2023-08-31T00:43:35;11.40;;;6.70;;
35312;SDS011;21425;50.454;30.466;2023-08-31T00:46:01;11.80;;;5.93;;
35312;SDS011;21425;50.454;30.466;2023-08-31T00:48:27;14.98;;;5.55;;
35312;SDS011;21425;50.454;30.466;2023-08-31T00:50:53;17.33;;;6.75;;
35312;SDS011;21425;50.454;30.466;2023-08-31T00:53:19;16.35;;;5.85;;
35312;SDS011;21425;50.454;30.466;2023-08-31T00:55:45;20.08;;;6.00;;
35312;SDS011;21425;50.454;30.466;2023-08-31T00:58:11;10.90;;;6.32;;
35312;SDS011;21425;50.454;30.466;2023-08-31T01:00:48;8.32;;;5.10;;
35312;SDS011;21425;50.454;30.466;2023-08-31T01:03:31;13.05;;;5.95;;
35312;SDS011;21425;50.454;30.466;2023-08-31T01:06:07;13.43;;;5.15;;
35312;SDS011;21425;50.454;30.466;2023-08-31T01:08:47;9.70;;;5.13;;
35312;SDS011;21425;50.454;30.466;2023-08-31T01:11:24;12.48;;;4.70;;
35312;SDS011;21425;50.454;30.466;2023-08-31T01:14:12;14.73;;;5.70;;
35312;SDS011;21425;50.454;30.466;2023-08-31T01:16:51;11.18;;;5.20;;
35312;SDS011;21425;50.454;30.466;2023-08-31T01:19:26;11.18;;;5.13;;
35312;SDS011;21425;50.454;30.466;2023-08-31T01:21:57;12.13;;;4.97;;
35312;SDS011;21425;50.454;30.466;2023-08-31T01:24:28;12.52;;;5.40;;
35312;SDS011;21425;50.454;30.466;2023-08-31T01:26:54;11.30;;;5.13;;
35312;SDS011;21425;50.454;30.466;2023-08-31T01:29:20;9.43;;;4.55;;
35312;SDS011;21425;50.454;30.466;2023-08-31T01:31:46;9.43;;;5.15;;
35312;SDS011;21425;50.454;30.466;2023-08-31T01:34:12;9.85;;;5.03;;
35312;SDS011;21425;50.454;30.466;2023-08-31T01:36:39;11.45;;;5.05;;
35312;SDS011;21425;50.454;30.466;2023-08-31T01:39:17;15.10;;;4.78;;
35312;SDS011;21425;50.454;30.466;2023-08-31T01:41:58;11.88;;;6.05;;
35312;SDS011;21425;50.454;30.466;2023-08-31T01:44:25;8.35;;;5.25;;
35312;SDS011;21425;50.454;30.466;2023-08-31T01:46:52;10.57;;;4.75;;
35312;SDS011;21425;50.454;30.466;2023-08-31T01:49:21;15.65;;;4.95;;
35312;SDS011;21425;50.454;30.466;2023-08-31T01:51:47;11.75;;;4.85;;
35312;SDS011;21425;50.454;30.466;2023-08-31T01:54:13;14.70;;;5.00;;
35312;SDS011;21425;50.454;30.466;2023-08-31T01:56:39;10.40;;;5.00;;
35312;SDS011;21425;50.454;30.466;2023-08-31T01:59:05;8.93;;;4.70;;
35312;SDS011;21425;50.454;30.466;2023-08-31T02:01:32;15.77;;;5.15;;
35312;SDS011;21425;50.454;30.466;2023-08-31T02:03:57;12.32;;;4.45;;
35312;SDS011;21425;50.454;30.466;2023-08-31T02:06:23;8.50;;;4.70;;
35312;SDS011;21425;50.454;30.466;2023-08-31T02:08:49;10.52;;;4.40;;
35312;SDS011;21425;50.454;30.466;2023-08-31T02:11:15;9.48;;;4.43;;
35312;SDS011;21425;50.454;30.466;2023-08-31T02:13:41;10.93;;;5.20;;
35312;SDS011;21425;50.454;30.466;2023-08-31T02:16:07;9.52;;;4.72;;
35312;SDS011;21425;50.454;30.466;2023-08-31T02:18:33;11.18;;;4.28;;
35312;SDS011;21425;50.454;30.466;2023-08-31T02:20:59;13.00;;;4.88;;
35312;SDS011;21425;50.454;30.466;2023-08-31T02:23:25;9.65;;;4.47;;
35312;SDS011;21425;50.454;30.466;2023-08-31T02:25:51;10.32;;;4.47;;
35312;SDS011;21425;50.454;30.466;2023-08-31T02:28:17;10.57;;;4.25;;
35312;SDS011;21425;50.454;30.466;2023-08-31T02:30:45;15.07;;;5.15;;
35312;SDS011;21425;50.454;30.466;2023-08-31T02:33:11;8.32;;;4.00;;
35312;SDS011;21425;50.454;30.466;2023-08-31T02:35:36;8.88;;;4.53;;
35312;SDS011;21425;50.454;30.466;2023-08-31T02:38:02;14.13;;;4.13;;
35312;SDS011;21425;50.454;30.466;2023-08-31T02:40:28;10.15;;;4.25;;
35312;SDS011;21425;50.454;30.466;2023-08-31T02:42:54;11.15;;;4.30;;
35312;SDS011;21425;50.454;30.466;2023-08-31T02:45:19;13.55;;;4.05;;
35312;SDS011;21425;50.454;30.466;2023-08-31T02:47:45;17.17;;;4.72;;
35312;SDS011;21425;50.454;30.466;2023-08-31T02:50:12;9.02;;;4.10;;
35312;SDS011;21425;50.454;30.466;2023-08-31T02:52:38;11.25;;;4.82;;
35312;SDS011;21425;50.454;30.466;2023-08-31T02:55:04;8.68;;;4.55;;
35312;SDS011;21425;50.454;30.466;2023-08-31T02:57:30;10.00;;;4.80;;
35312;SDS011;21425;50.454;30.466;2023-08-31T02:59:56;12.25;;;4.75;;
35312;SDS011;21425;50.454;30.466;2023-08-31T03:02:22;11.35;;;4.38;;
35312;SDS011;21425;50.454;30.466;2023-08-31T03:04:48;11.65;;;4.53;;
35312;SDS011;21425;50.454;30.466;2023-08-31T03:07:14;15.02;;;4.38;;
35312;SDS011;21425;50.454;30.466;2023-08-31T03:09:40;11.70;;;4.63;;
35312;SDS011;21425;50.454;30.466;2023-08-31T03:12:06;7.18;;;3.78;;
35312;SDS011;21425;50.454;30.466;2023-08-31T03:14:32;7.32;;;3.88;;
35312;SDS011;21425;50.454;30.466;2023-08-31T03:16:58;13.45;;;4.38;;
35312;SDS011;21425;50.454;30.466;2023-08-31T03:19:24;12.15;;;4.30;;
35312;SDS011;21425;50.454;30.466;2023-08-31T03:21:50;8.10;;;4.15;;
35312;SDS011;21425;50.454;30.466;2023-08-31T03:24:16;8.98;;;4.28;;
35312;SDS011;21425;50.454;30.466;2023-08-31T03:26:42;12.00;;;4.38;;
35312;SDS011;21425;50.454;30.466;2023-08-31T03:29:07;12.40;;;4.55;;
35312;SDS011;21425;50.454;30.466;2023-08-31T03:31:33;13.00;;;4.53;;
35312;SDS011;21425;50.454;30.466;2023-08-31T03:33:59;8.65;;;4.35;;
35312;SDS011;21425;50.454;30.466;2023-08-31T03:36:25;8.60;;;4.60;;
35312;SDS011;21425;50.454;30.466;2023-08-31T03:38:51;19.92;;;5.13;;
35312;SDS011;21425;50.454;30.466;2023-08-31T03:41:16;14.52;;;4.55;;
35312;SDS011;21425;50.454;30.466;2023-08-31T03:43:42;7.97;;;3.83;;
35312;SDS011;21425;50.454;30.466;2023-08-31T03:46:08;10.25;;;4.40;;
35312;SDS011;21425;50.454;30.466;2023-08-31T03:48:34;13.38;;;4.55;;
35312;SDS011;21425;50.454;30.466;2023-08-31T03:51:00;14.77;;;4.97;;
35312;SDS011;21425;50.454;30.466;2023-08-31T03:53:26;10.27;;;4.38;;
35312;SDS011;21425;50.454;30.466;2023-08-31T03:55:51;16.48;;;4.78;;
35312;SDS011;21425;50.454;30.466;2023-08-31T03:58:17;9.95;;;3.83;;
35312;SDS011;21425;50.454;30.466;2023-08-31T04:00:43;10.45;;;4.90;;
35312;SDS011;21425;50.454;30.466;2023-08-31T04:03:09;9.10;;;4.50;;
35312;SDS011;21425;50.454;30.466;2023-08-31T04:05:35;10.05;;;4.55;;
35312;SDS011;21425;50.454;30.466;2023-08-31T04:08:02;10.73;;;4.65;;
35312;SDS011;21425;50.454;30.466;2023-08-31T04:10:28;15.13;;;4.30;;
35312;SDS011;21425;50.454;30.466;2023-08-31T04:12:57;12.68;;;4.80;;
35312;SDS011;21425;50.454;30.466;2023-08-31T04:15:23;15.25;;;4.65;;
35312;SDS011;21425;50.454;30.466;2023-08-31T04:17:49;16.30;;;4.80;;
35312;SDS011;21425;50.454;30.466;2023-08-31T04:20:15;9.23;;;4.20;;
35312;SDS011;21425;50.454;30.466;2023-08-31T04:22:41;11.57;;;4.40;;
35312;SDS011;21425;50.454;30.466;2023-08-31T04:25:06;10.80;;;4.32;;
35312;SDS011;21425;50.454;30.466;2023-08-31T04:27:32;9.32;;;4.53;;
35312;SDS011;21425;50.454;30.466;2023-08-31T04:29:59;11.38;;;5.03;;
35312;SDS011;21425;50.454;30.466;2023-08-31T04:32:25;13.57;;;4.68;;
35312;SDS011;21425;50.454;30.466;2023-08-31T04:34:51;15.43;;;4.60;;
35312;SDS011;21425;50.454;30.466;2023-08-31T04:37:17;11.43;;;4.47;;
35312;SDS011;21425;50.454;30.466;2023-08-31T04:39:43;11.57;;;4.30;;
35312;SDS011;21425;50.454;30.466;2023-08-31T04:42:09;7.55;;;3.85;;
35312;SDS011;21425;50.454;30.466;2023-08-31T04:44:35;12.50;;;4.90;;
35312;SDS011;21425;50.454;30.466;2023-08-31T04:47:00;10.35;;;4.53;;
35312;SDS011;21425;50.454;30.466;2023-08-31T04:49:26;15.40;;;4.40;;
35312;SDS011;21425;50.454;30.466;2023-08-31T04:51:52;13.10;;;4.38;;
35312;SDS011;21425;50.454;30.466;2023-08-31T04:54:18;8.85;;;4.70;;
35312;SDS011;21425;50.454;30.466;2023-08-31T04:56:44;9.65;;;4.57;;
35312;SDS011;21425;50.454;30.466;2023-08-31T04:59:10;12.20;;;4.60;;
35312;SDS011;21425;50.454;30.466;2023-08-31T05:01:36;10.38;;;4.35;;
35312;SDS011;21425;50.454;30.466;2023-08-31T05:04:02;14.95;;;4.70;;
35312;SDS011;21425;50.454;30.466;2023-08-31T05:06:28;8.38;;;4.22;;
35312;SDS011;21425;50.454;30.466;2023-08-31T05:08:54;13.73;;;4.45;;
35312;SDS011;21425;50.454;30.466;2023-08-31T05:11:21;9.15;;;4.30;;
35312;SDS011;21425;50.454;30.466;2023-08-31T05:13:47;11.32;;;4.90;;
35312;SDS011;21425;50.454;30.466;2023-08-31T05:16:13;11.25;;;4.38;;
35312;SDS011;21425;50.454;30.466;2023-08-31T05:18:39;11.50;;;4.10;;
35312;SDS011;21425;50.454;30.466;2023-08-31T05:21:05;12.90;;;4.07;;
35312;SDS011;21425;50.454;30.466;2023-08-31T05:23:32;11.02;;;4.63;;
35312;SDS011;21425;50.454;30.466;2023-08-31T05:25:57;8.25;;;4.50;;
35312;SDS011;21425;50.454;30.466;2023-08-31T05:28:23;12.70;;;4.47;;
35312;SDS011;21425;50.454;30.466;2023-08-31T05:30:53;15.27;;;5.15;;
35312;SDS011;21425;50.454;30.466;2023-08-31T05:33:20;9.50;;;3.85;;
35312;SDS011;21425;50.454;30.466;2023-08-31T05:35:52;14.88;;;4.47;;
35312;SDS011;21425;50.454;30.466;2023-08-31T05:38:18;9.80;;;4.30;;
35312;SDS011;21425;50.454;30.466;2023-08-31T05:40:43;17.38;;;4.53;;
35312;SDS011;21425;50.454;30.466;2023-08-31T05:43:14;12.25;;;3.90;;
35312;SDS011;21425;50.454;30.466;2023-08-31T05:45:40;6.47;;;3.75;;
35312;SDS011;21425;50.454;30.466;2023-08-31T05:48:07;10.40;;;3.95;;
35312;SDS011;21425;50.454;30.466;2023-08-31T05:50:33;8.20;;;4.13;;
35312;SDS011;21425;50.454;30.466;2023-08-31T05:53:01;12.50;;;4.32;;
35312;SDS011;21425;50.454;30.466;2023-08-31T05:55:27;15.15;;;4.75;;
35312;SDS011;21425;50.454;30.466;2023-08-31T05:57:53;12.57;;;4.18;;
35312;SDS011;21425;50.454;30.466;2023-08-31T06:00:18;16.77;;;4.55;;
35312;SDS011;21425;50.454;30.466;2023-08-31T06:02:44;11.23;;;4.20;;
35312;SDS011;21425;50.454;30.466;2023-08-31T06:05:10;13.43;;;4.70;;
35312;SDS011;21425;50.454;30.466;2023-08-31T06:07:42;11.13;;;4.65;;
35312;SDS011;21425;50.454;30.466;2023-08-31T06:10:08;8.80;;;4.03;;
35312;SDS011;21425;50.454;30.466;2023-08-31T06:12:34;9.60;;;4.28;;
35312;SDS011;21425;50.454;30.466;2023-08-31T06:15:01;15.95;;;5.00;;
35312;SDS011;21425;50.454;30.466;2023-08-31T06:17:28;10.45;;;4.80;;
35312;SDS011;21425;50.454;30.466;2023-08-31T06:19:53;14.73;;;4.85;;
35312;SDS011;21425;50.454;30.466;2023-08-31T06:22:19;8.88;;;4.50;;
35312;SDS011;21425;50.454;30.466;2023-08-31T06:24:47;9.63;;;4.32;;
35312;SDS011;21425;50.454;30.466;2023-08-31T06:27:13;11.80;;;4.30;;
35312;SDS011;21425;50.454;30.466;2023-08-31T06:29:40;12.30;;;4.60;;
35312;SDS011;21425;50.454;30.466;2023-08-31T06:32:07;11.30;;;4.70;;
35312;SDS011;21425;50.454;30.466;2023-08-31T06:34:32;10.05;;;4.50;;
35312;SDS011;21425;50.454;30.466;2023-08-31T06:36:58;12.95;;;4.65;;
35312;SDS011;21425;50.454;30.466;2023-08-31T06:39:28;16.92;;;5.15;;
35312;SDS011;21425;50.454;30.466;2023-08-31T06:41:54;9.77;;;4.82;;
35312;SDS011;21425;50.454;30.466;2023-08-31T06:44:20;13.98;;;4.57;;
35312;SDS011;21425;50.454;30.466;2023-08-31T06:46:46;15.25;;;4.85;;
35312;SDS011;21425;50.454;30.466;2023-08-31T06:49:11;11.65;;;4.40;;
35312;SDS011;21425;50.454;30.466;2023-08-31T06:51:37;13.93;;;4.25;;
35312;SDS011;21425;50.454;30.466;2023-08-31T06:54:03;14.52;;;4.05;;
35312;SDS011;21425;50.454;30.466;2023-08-31T06:56:34;12.50;;;4.18;;
35312;SDS011;21425;50.454;30.466;2023-08-31T06:59:01;13.05;;;5.28;;
35312;SDS011;21425;50.454;30.466;2023-08-31T07:01:27;14.55;;;5.20;;
35312;SDS011;21425;50.454;30.466;2023-08-31T07:03:54;21.00;;;5.93;;
35312;SDS011;21425;50.454;30.466;2023-08-31T07:06:20;8.57;;;4.25;;
35312;SDS011;21425;50.454;30.466;2023-08-31T07:08:47;8.70;;;4.18;;
35312;SDS011;21425;50.454;30.466;2023-08-31T07:11:14;10.15;;;4.40;;
35312;SDS011;21425;50.454;30.466;2023-08-31T07:13:40;9.50;;;4.35;;
35312;SDS011;21425;50.454;30.466;2023-08-31T07:16:07;9.90;;;4.22;;
35312;SDS011;21425;50.454;30.466;2023-08-31T07:18:33;15.55;;;4.75;;
35312;SDS011;21425;50.454;30.466;2023-08-31T07:20:58;15.82;;;4.85;;
35312;SDS011;21425;50.454;30.466;2023-08-31T07:23:24;11.48;;;4.75;;
35312;SDS011;21425;50.454;30.466;2023-08-31T07:25:49;11.05;;;4.65;;
35312;SDS011;21425;50.454;30.466;2023-08-31T07:28:15;10.02;;;4.70;;
35312;SDS011;21425;50.454;30.466;2023-08-31T07:30:43;12.48;;;4.45;;
35312;SDS011;21425;50.454;30.466;2023-08-31T07:33:08;12.75;;;5.13;;
35312;SDS011;21425;50.454;30.466;2023-08-31T07:35:34;21.30;;;5.63;;
35312;SDS011;21425;50.454;30.466;2023-08-31T07:38:00;17.00;;;4.15;;
35312;SDS011;21425;50.454;30.466;2023-08-31T07:40:26;12.85;;;4.53;;
35312;SDS011;21425;50.454;30.466;2023-08-31T07:42:52;10.95;;;3.97;;
35312;SDS011;21425;50.454;30.466;2023-08-31T07:45:18;23.83;;;5.38;;
35312;SDS011;21425;50.454;30.466;2023-08-31T07:47:44;9.25;;;4.07;;
35312;SDS011;21425;50.454;30.466;2023-08-31T07:50:10;10.10;;;4.57;;
35312;SDS011;21425;50.454;30.466;2023-08-31T07:52:36;9.48;;;3.92;;
35312;SDS011;21425;50.454;30.466;2023-08-31T07:55:03;10.38;;;4.45;;
35312;SDS011;21425;50.454;30.466;2023-08-31T07:57:29;20.77;;;5.03;;
35312;SDS011;21425;50.454;30.466;2023-08-31T07:59:55;11.50;;;4.57;;
35312;SDS011;21425;50.454;30.466;2023-08-31T08:02:20;17.38;;;4.25;;
35312;SDS011;21425;50.454;30.466;2023-08-31T08:04:46;10.90;;;4.63;;
35312;SDS011;21425;50.454;30.466;2023-08-31T08:07:12;11.98;;;4.05;;
35312;SDS011;21425;50.454;30.466;2023-08-31T08:09:38;13.95;;;4.47;;
35312;SDS011;21425;50.454;30.466;2023-08-31T08:12:04;14.52;;;5.03;;
35312;SDS011;21425;50.454;30.466;2023-08-31T08:14:30;12.38;;;4.45;;
35312;SDS011;21425;50.454;30.466;2023-08-31T08:16:56;12.90;;;4.22;;
35312;SDS011;21425;50.454;30.466;2023-08-31T08:19:22;14.13;;;4.25;;
35312;SDS011;21425;50.454;30.466;2023-08-31T08:21:48;9.25;;;4.32;;
35312;SDS011;21425;50.454;30.466;2023-08-31T08:24:14;15.13;;;5.13;;
35312;SDS011;21425;50.454;30.466;2023-08-31T08:26:40;12.25;;;4.40;;
35312;SDS011;21425;50.454;30.466;2023-08-31T08:29:06;12.32;;;4.65;;
35312;SDS011;21425;50.454;30.466;2023-08-31T08:31:32;18.35;;;4.28;;
35312;SDS011;21425;50.454;30.466;2023-08-31T08:33:57;15.75;;;4.65;;
35312;SDS011;21425;50.454;30.466;2023-08-31T08:36:23;11.65;;;4.75;;
35312;SDS011;21425;50.454;30.466;2023-08-31T08:38:48;13.10;;;4.75;;
35312;SDS011;21425;50.454;30.466;2023-08-31T08:41:14;19.63;;;5.43;;
35312;SDS011;21425;50.454;30.466;2023-08-31T08:43:44;14.15;;;4.70;;
35312;SDS011;21425;50.454;30.466;2023-08-31T08:46:11;13.82;;;4.65;;
35312;SDS011;21425;50.454;30.466;2023-08-31T08:48:38;13.85;;;4.00;;
35312;SDS011;21425;50.454;30.466;2023-08-31T08:51:05;9.80;;;3.90;;
35312;SDS011;21425;50.454;30.466;2023-08-31T08:53:32;9.88;;;4.60;;
35312;SDS011;21425;50.454;30.466;2023-08-31T08:55:58;10.35;;;4.22;;
35312;SDS011;21425;50.454;30.466;2023-08-31T08:58:25;10.15;;;4.72;;
35312;SDS011;21425;50.454;30.466;2023-08-31T09:00:52;11.77;;;4.55;;
35312;SDS011;21425;50.454;30.466;2023-08-31T09:03:21;13.57;;;4.22;;
35312;SDS011;21425;50.454;30.466;2023-08-31T09:05:47;10.40;;;3.92;;
35312;SDS011;21425;50.454;30.466;2023-08-31T09:08:13;11.32;;;4.32;;
35312;SDS011;21425;50.454;30.466;2023-08-31T09:10:41;10.90;;;4.68;;
35312;SDS011;21425;50.454;30.466;2023-08-31T09:13:09;11.63;;;4.30;;
35312;SDS011;21425;50.454;30.466;2023-08-31T09:15:39;9.20;;;3.67;;
35312;SDS011;21425;50.454;30.466;2023-08-31T09:18:06;11.27;;;3.60;;
35312;SDS011;21425;50.454;30.466;2023-08-31T09:20:35;12.48;;;4.20;;
35312;SDS011;21425;50.454;30.466;2023-08-31T09:23:12;13.90;;;4.72;;
35312;SDS011;21425;50.454;30.466;2023-08-31T09:25:45;11.50;;;4.25;;
35312;SDS011;21425;50.454;30.466;2023-08-31T09:28:13;12.32;;;4.90;;
35312;SDS011;21425;50.454;30.466;2023-08-31T09:30:39;15.93;;;4.15;;
35312;SDS011;21425;50.454;30.466;2023-08-31T09:33:09;9.52;;;4.20;;
35312;SDS011;21425;50.454;30.466;2023-08-31T09:35:49;14.50;;;4.13;;
35312;SDS011;21425;50.454;30.466;2023-08-31T09:38:18;15.20;;;4.07;;
35312;SDS011;21425;50.454;30.466;2023-08-31T09:40:44;9.50;;;3.95;;
35312;SDS011;21425;50.454;30.466;2023-08-31T09:43:10;9.05;;;4.07;;
35312;SDS011;21425;50.454;30.466;2023-08-31T09:45:36;9.80;;;4.13;;
35312;SDS011;21425;50.454;30.466;2023-08-31T09:48:03;9.85;;;4.32;;
35312;SDS011;21425;50.454;30.466;2023-08-31T09:50:30;10.40;;;3.90;;
35312;SDS011;21425;50.454;30.466;2023-08-31T09:53:00;16.92;;;3.88;;
35312;SDS011;21425;50.454;30.466;2023-08-31T09:55:28;9.75;;;3.65;;
35312;SDS011;21425;50.454;30.466;2023-08-31T09:57:56;13.00;;;3.83;;
35312;SDS011;21425;50.454;30.466;2023-08-31T10:00:24;10.23;;;3.75;;
35312;SDS011;21425;50.454;30.466;2023-08-31T10:02:55;9.93;;;3.83;;
35312;SDS011;21425;50.454;30.466;2023-08-31T10:05:24;15.30;;;4.22;;
35312;SDS011;21425;50.454;30.466;2023-08-31T10:07:50;14.57;;;3.75;;
35312;SDS011;21425;50.454;30.466;2023-08-31T10:10:16;18.30;;;3.80;;
35312;SDS011;21425;50.454;30.466;2023-08-31T10:12:44;12.50;;;3.72;;
35312;SDS011;21425;50.454;30.466;2023-08-31T10:15:12;17.13;;;4.25;;
35312;SDS011;21425;50.454;30.466;2023-08-31T10:17:39;10.45;;;4.18;;
35312;SDS011;21425;50.454;30.466;2023-08-31T10:20:08;9.15;;;4.05;;
35312;SDS011;21425;50.454;30.466;2023-08-31T10:22:36;9.70;;;3.72;;
35312;SDS011;21425;50.454;30.466;2023-08-31T10:25:03;9.20;;;3.67;;
35312;SDS011;21425;50.454;30.466;2023-08-31T10:27:37;14.02;;;3.90;;
35312;SDS011;21425;50.454;30.466;2023-08-31T10:35:40;15.38;;;4.38;;
35312;SDS011;21425;50.454;30.466;2023-08-31T10:38:25;16.13;;;4.20;;
35312;SDS011;21425;50.454;30.466;2023-08-31T10:43:43;11.93;;;4.05;;
35312;SDS011;21425;50.454;30.466;2023-08-31T10:46:18;14.70;;;4.22;;
35312;SDS011;21425;50.454;30.466;2023-08-31T10:48:57;8.98;;;4.38;;
35312;SDS011;21425;50.454;30.466;2023-08-31T10:51:24;17.45;;;3.92;;
35312;SDS011;21425;50.454;30.466;2023-08-31T10:54:04;10.07;;;3.55;;
35312;SDS011;21425;50.454;30.466;2023-08-31T10:59:23;9.15;;;3.65;;
35312;SDS011;21425;50.454;30.466;2023-08-31T11:01:56;10.77;;;4.28;;
35312;SDS011;21425;50.454;30.466;2023-08-31T11:04:24;10.63;;;3.83;;
35312;SDS011;21425;50.454;30.466;2023-08-31T11:09:44;11.25;;;4.30;;
35312;SDS011;21425;50.454;30.466;2023-08-31T11:12:11;14.85;;;4.00;;
35312;SDS011;21425;50.454;30.466;2023-08-31T11:14:38;14.98;;;4.50;;
35312;SDS011;21425;50.454;30.466;2023-08-31T11:17:05;9.55;;;3.72;;
35312;SDS011;21425;50.454;30.466;2023-08-31T11:19:31;17.85;;;3.95;;
35312;SDS011;21425;50.454;30.466;2023-08-31T11:21:58;19.33;;;4.05;;
35312;SDS011;21425;50.454;30.466;2023-08-31T11:24:27;18.02;;;4.32;;
35312;SDS011;21425;50.454;30.466;2023-08-31T11:26:53;13.80;;;4.00;;
35312;SDS011;21425;50.454;30.466;2023-08-31T11:29:20;16.25;;;4.10;;
35312;SDS011;21425;50.454;30.466;2023-08-31T11:31:46;9.98;;;3.72;;
35312;SDS011;21425;50.454;30.466;2023-08-31T11:34:12;10.65;;;3.63;;
35312;SDS011;21425;50.454;30.466;2023-08-31T11:36:40;10.45;;;3.42;;
35312;SDS011;21425;50.454;30.466;2023-08-31T11:39:07;10.98;;;4.30;;
35312;SDS011;21425;50.454;30.466;2023-08-31T11:41:33;16.40;;;3.60;;
35312;SDS011;21425;50.454;30.466;2023-08-31T11:44:01;8.15;;;3.30;;
35312;SDS011;21425;50.454;30.466;2023-08-31T11:46:31;12.98;;;3.55;;
35312;SDS011;21425;50.454;30.466;2023-08-31T11:48:58;9.13;;;3.95;;
35312;SDS011;21425;50.454;30.466;2023-08-31T11:51:25;14.52;;;3.80;;
35312;SDS011;21425;50.454;30.466;2023-08-31T11:53:54;10.35;;;3.78;;
35312;SDS011;21425;50.454;30.466;2023-08-31T11:56:21;10.75;;;3.83;;
35312;SDS011;21425;50.454;30.466;2023-08-31T11:58:50;12.02;;;3.42;;
35312;SDS011;21425;50.454;30.466;2023-08-31T12:01:21;8.38;;;3.65;;
35312;SDS011;21425;50.454;30.466;2023-08-31T12:03:47;8.82;;;3.53;;
35312;SDS011;21425;50.454;30.466;2023-08-31T12:06:16;6.78;;;3.50;;
35312;SDS011;21425;50.454;30.466;2023-08-31T12:08:45;14.27;;;4.07;;
35312;SDS011;21425;50.454;30.466;2023-08-31T12:11:11;9.35;;;3.65;;
35312;SDS011;21425;50.454;30.466;2023-08-31T12:13:37;8.57;;;3.95;;
35312;SDS011;21425;50.454;30.466;2023-08-31T12:16:03;9.45;;;3.92;;
35312;SDS011;21425;50.454;30.466;2023-08-31T12:18:36;24.25;;;5.03;;
35312;SDS011;21425;50.454;30.466;2023-08-31T12:21:02;10.25;;;4.05;;
35312;SDS011;21425;50.454;30.466;2023-08-31T12:23:29;10.02;;;3.00;;
35312;SDS011;21425;50.454;30.466;2023-08-31T12:25:55;13.02;;;3.42;;
35312;SDS011;21425;50.454;30.466;2023-08-31T12:28:22;6.93;;;3.42;;
35312;SDS011;21425;50.454;30.466;2023-08-31T12:30:52;9.10;;;3.80;;
35312;SDS011;21425;50.454;30.466;2023-08-31T12:33:18;13.63;;;3.60;;
35312;SDS011;21425;50.454;30.466;2023-08-31T12:35:45;12.23;;;3.60;;
35312;SDS011;21425;50.454;30.466;2023-08-31T12:38:11;7.13;;;3.75;;
35312;SDS011;21425;50.454;30.466;2023-08-31T12:40:37;16.50;;;3.67;;
35312;SDS011;21425;50.454;30.466;2023-08-31T12:43:04;8.07;;;3.05;;
35312;SDS011;21425;50.454;30.466;2023-08-31T12:45:30;6.72;;;3.63;;
35312;SDS011;21425;50.454;30.466;2023-08-31T12:47:56;9.90;;;3.38;;
35312;SDS011;21425;50.454;30.466;2023-08-31T12:50:22;8.98;;;3.30;;
35312;SDS011;21425;50.454;30.466;2023-08-31T12:52:48;8.75;;;3.05;;
35312;SDS011;21425;50.454;30.466;2023-08-31T12:55:14;8.88;;;3.50;;
35312;SDS011;21425;50.454;30.466;2023-08-31T12:57:41;11.50;;;3.40;;
35312;SDS011;21425;50.454;30.466;2023-08-31T13:00:09;9.77;;;3.00;;
35312;SDS011;21425;50.454;30.466;2023-08-31T13:02:38;10.32;;;3.20;;
35312;SDS011;21425;50.454;30.466;2023-08-31T13:05:05;9.88;;;3.58;;
35312;SDS011;21425;50.454;30.466;2023-08-31T13:07:31;10.40;;;3.92;;
35312;SDS011;21425;50.454;30.466;2023-08-31T13:09:59;15.15;;;3.80;;
35312;SDS011;21425;50.454;30.466;2023-08-31T13:12:25;13.50;;;4.00;;
35312;SDS011;21425;50.454;30.466;2023-08-31T13:14:51;12.32;;;3.92;;
35312;SDS011;21425;50.454;30.466;2023-08-31T13:17:16;10.20;;;3.70;;
35312;SDS011;21425;50.454;30.466;2023-08-31T13:19:42;10.98;;;3.50;;
35312;SDS011;21425;50.454;30.466;2023-08-31T13:22:08;9.55;;;3.10;;
35312;SDS011;21425;50.454;30.466;2023-08-31T13:24:40;6.95;;;3.08;;
35312;SDS011;21425;50.454;30.466;2023-08-31T13:27:06;13.40;;;4.15;;
35312;SDS011;21425;50.454;30.466;2023-08-31T13:29:32;10.30;;;3.60;;
35312;SDS011;21425;50.454;30.466;2023-08-31T13:31:57;9.20;;;3.17;;
35312;SDS011;21425;50.454;30.466;2023-08-31T13:34:23;11.10;;;3.65;;
35312;SDS011;21425;50.454;30.466;2023-08-31T13:36:49;15.48;;;3.95;;
35312;SDS011;21425;50.454;30.466;2023-08-31T13:39:14;9.02;;;3.83;;
35312;SDS011;21425;50.454;30.466;2023-08-31T13:41:41;13.32;;;4.32;;
35312;SDS011;21425;50.454;30.466;2023-08-31T13:44:07;11.07;;;4.18;;
35312;SDS011;21425;50.454;30.466;2023-08-31T13:46:33;15.38;;;4.25;;
35312;SDS011;21425;50.454;30.466;2023-08-31T13:48:58;10.70;;;3.05;;
35312;SDS011;21425;50.454;30.466;2023-08-31T13:51:26;13.38;;;3.70;;
35312;SDS011;21425;50.454;30.466;2023-08-31T13:53:52;15.40;;;3.95;;
35312;SDS011;21425;50.454;30.466;2023-08-31T13:56:18;10.35;;;3.55;;
35312;SDS011;21425;50.454;30.466;2023-08-31T13:58:44;10.00;;;4.28;;
35312;SDS011;21425;50.454;30.466;2023-08-31T14:01:10;9.40;;;3.75;;
35312;SDS011;21425;50.454;30.466;2023-08-31T14:03:38;11.40;;;3.80;;
35312;SDS011;21425;50.454;30.466;2023-08-31T14:06:04;7.57;;;3.90;;
35312;SDS011;21425;50.454;30.466;2023-08-31T14:08:31;13.75;;;3.65;;
35312;SDS011;21425;50.454;30.466;2023-08-31T14:10:57;13.57;;;3.75;;
35312;SDS011;21425;50.454;30.466;2023-08-31T14:13:23;10.50;;;3.65;;
35312;SDS011;21425;50.454;30.466;2023-08-31T14:15:49;14.73;;;3.78;;
35312;SDS011;21425;50.454;30.466;2023-08-31T14:18:14;9.52;;;3.53;;
35312;SDS011;21425;50.454;30.466;2023-08-31T14:20:40;10.25;;;3.63;;
35312;SDS011;21425;50.454;30.466;2023-08-31T14:23:06;13.02;;;4.15;;
35312;SDS011;21425;50.454;30.466;2023-08-31T14:25:35;11.93;;;3.47;;
35312;SDS011;21425;50.454;30.466;2023-08-31T14:28:03;13.38;;;4.63;;
35312;SDS011;21425;50.454;30.466;2023-08-31T14:30:29;9.95;;;4.05;;
35312;SDS011;21425;50.454;30.466;2023-08-31T14:32:55;13.13;;;4.25;;
35312;SDS011;21425;50.454;30.466;2023-08-31T14:35:20;13.20;;;4.38;;
35312;SDS011;21425;50.454;30.466;2023-08-31T14:37:46;11.95;;;4.47;;
35312;SDS011;21425;50.454;30.466;2023-08-31T14:40:12;12.27;;;4.45;;